sensor_id;sensor_type;location;lat;lon;timestamp;P1;durP1;ratioP1;P2;durP2;ratioP2
42104;SDS011;70664;51.472;5.712;2023-07-02T00:01:51;2.28;;;1.50;;
42104;SDS011;70664;51.472;5.712;2023-07-02T00:04:17;4.40;;;1.55;;
42104;SDS011;70664;51.472;5.712;2023-07-02T00:06:47;3.65;;;1.73;;
42104;SDS011;70664;51.472;5.712;2023-07-02T00:09:14;2.15;;;1.60;;
42104;SDS011;70664;51.472;5.712;2023-07-02T00:11:42;5.65;;;1.73;;
42104;SDS011;70664;51.472;5.712;2023-07-02T00:14:11;3.50;;;1.80;;
42104;SDS011;70664;51.472;5.712;2023-07-02T00:16:38;3.75;;;1.63;;
42104;SDS011;70664;51.472;5.712;2023-07-02T00:19:08;5.35;;;1.85;;
42104;SDS011;70664;51.472;5.712;2023-07-02T00:21:34;3.40;;;1.80;;
42104;SDS011;70664;51.472;5.712;2023-07-02T00:24:02;3.17;;;1.70;;
42104;SDS011;70664;51.472;5.712;2023-07-02T00:26:28;3.80;;;1.90;;
42104;SDS011;70664;51.472;5.712;2023-07-02T00:28:54;5.90;;;2.00;;
42104;SDS011;70664;51.472;5.712;2023-07-02T00:31:21;4.00;;;1.80;;
42104;SDS011;70664;51.472;5.712;2023-07-02T00:33:48;5.22;;;1.88;;
42104;SDS011;70664;51.472;5.712;2023-07-02T00:36:15;4.95;;;1.73;;
42104;SDS011;70664;51.472;5.712;2023-07-02T00:38:41;4.50;;;1.75;;
42104;SDS011;70664;51.472;5.712;2023-07-02T00:41:10;3.22;;;1.60;;
42104;SDS011;70664;51.472;5.712;2023-07-02T00:43:37;3.35;;;1.80;;
42104;SDS011;70664;51.472;5.712;2023-07-02T00:46:17;5.28;;;1.70;;
42104;SDS011;70664;51.472;5.712;2023-07-02T00:48:48;4.95;;;1.70;;
42104;SDS011;70664;51.472;5.712;2023-07-02T00:51:16;4.82;;;1.75;;
42104;SDS011;70664;51.472;5.712;2023-07-02T00:53:53;3.50;;;1.80;;
42104;SDS011;70664;51.472;5.712;2023-07-02T00:56:21;3.80;;;1.80;;
42104;SDS011;70664;51.472;5.712;2023-07-02T00:58:48;3.40;;;1.85;;
42104;SDS011;70664;51.472;5.712;2023-07-02T01:01:17;3.17;;;1.55;;
42104;SDS011;70664;51.472;5.712;2023-07-02T01:03:57;5.25;;;1.90;;
42104;SDS011;70664;51.472;5.712;2023-07-02T01:06:28;4.60;;;1.88;;
42104;SDS011;70664;51.472;5.712;2023-07-02T01:08:56;5.35;;;2.05;;
42104;SDS011;70664;51.472;5.712;2023-07-02T01:11:28;3.38;;;1.90;;
42104;SDS011;70664;51.472;5.712;2023-07-02T01:14:32;3.97;;;1.90;;
42104;SDS011;70664;51.472;5.712;2023-07-02T01:17:07;3.60;;;1.90;;
42104;SDS011;70664;51.472;5.712;2023-07-02T01:22:21;3.15;;;2.10;;
42104;SDS011;70664;51.472;5.712;2023-07-02T01:24:50;3.10;;;1.90;;
42104;SDS011;70664;51.472;5.712;2023-07-02T01:27:16;3.72;;;1.90;;
42104;SDS011;70664;51.472;5.712;2023-07-02T01:29:43;5.90;;;1.98;;
42104;SDS011;70664;51.472;5.712;2023-07-02T01:32:13;3.75;;;2.35;;
42104;SDS011;70664;51.472;5.712;2023-07-02T01:34:39;4.07;;;2.00;;
42104;SDS011;70664;51.472;5.712;2023-07-02T01:37:05;5.18;;;2.53;;
42104;SDS011;70664;51.472;5.712;2023-07-02T01:39:33;3.85;;;2.20;;
42104;SDS011;70664;51.472;5.712;2023-07-02T01:42:08;3.28;;;2.35;;
42104;SDS011;70664;51.472;5.712;2023-07-02T01:44:36;3.35;;;2.45;;
42104;SDS011;70664;51.472;5.712;2023-07-02T01:47:02;5.25;;;2.72;;
42104;SDS011;70664;51.472;5.712;2023-07-02T01:49:29;5.75;;;2.55;;
42104;SDS011;70664;51.472;5.712;2023-07-02T01:51:56;5.47;;;2.60;;
42104;SDS011;70664;51.472;5.712;2023-07-02T01:54:23;4.15;;;2.60;;
42104;SDS011;70664;51.472;5.712;2023-07-02T01:56:52;5.88;;;2.70;;
42104;SDS011;70664;51.472;5.712;2023-07-02T01:59:19;5.05;;;2.63;;
42104;SDS011;70664;51.472;5.712;2023-07-02T02:01:44;5.60;;;2.92;;
42104;SDS011;70664;51.472;5.712;2023-07-02T02:04:11;5.30;;;3.17;;
42104;SDS011;70664;51.472;5.712;2023-07-02T02:06:37;4.47;;;2.95;;
42104;SDS011;70664;51.472;5.712;2023-07-02T02:09:04;5.68;;;2.90;;
42104;SDS011;70664;51.472;5.712;2023-07-02T02:11:31;4.18;;;2.90;;
42104;SDS011;70664;51.472;5.712;2023-07-02T02:13:58;7.10;;;3.42;;
42104;SDS011;70664;51.472;5.712;2023-07-02T02:16:26;5.15;;;3.42;;
42104;SDS011;70664;51.472;5.712;2023-07-02T02:18:52;8.38;;;3.50;;
42104;SDS011;70664;51.472;5.712;2023-07-02T02:21:19;6.07;;;3.10;;
42104;SDS011;70664;51.472;5.712;2023-07-02T02:23:46;6.43;;;3.78;;
42104;SDS011;70664;51.472;5.712;2023-07-02T02:26:12;6.55;;;3.35;;
42104;SDS011;70664;51.472;5.712;2023-07-02T02:28:39;4.75;;;3.13;;
42104;SDS011;70664;51.472;5.712;2023-07-02T02:31:06;6.00;;;3.95;;
42104;SDS011;70664;51.472;5.712;2023-07-02T02:33:32;7.22;;;3.80;;
42104;SDS011;70664;51.472;5.712;2023-07-02T02:35:58;6.82;;;3.55;;
42104;SDS011;70664;51.472;5.712;2023-07-02T02:38:24;4.93;;;3.58;;
42104;SDS011;70664;51.472;5.712;2023-07-02T02:40:50;4.85;;;3.35;;
42104;SDS011;70664;51.472;5.712;2023-07-02T02:43:16;7.18;;;4.20;;
42104;SDS011;70664;51.472;5.712;2023-07-02T02:45:42;6.07;;;3.67;;
42104;SDS011;70664;51.472;5.712;2023-07-02T02:48:08;6.30;;;4.07;;
42104;SDS011;70664;51.472;5.712;2023-07-02T02:50:34;5.88;;;3.75;;
42104;SDS011;70664;51.472;5.712;2023-07-02T02:52:59;6.80;;;4.10;;
42104;SDS011;70664;51.472;5.712;2023-07-02T02:55:25;8.13;;;4.25;;
42104;SDS011;70664;51.472;5.712;2023-07-02T02:57:51;5.88;;;3.80;;
42104;SDS011;70664;51.472;5.712;2023-07-02T03:00:17;6.85;;;4.70;;
42104;SDS011;70664;51.472;5.712;2023-07-02T03:02:43;7.07;;;4.07;;
42104;SDS011;70664;51.472;5.712;2023-07-02T03:05:08;8.07;;;4.75;;
42104;SDS011;70664;51.472;5.712;2023-07-02T03:07:34;6.22;;;4.18;;
42104;SDS011;70664;51.472;5.712;2023-07-02T03:10:00;7.63;;;4.43;;
42104;SDS011;70664;51.472;5.712;2023-07-02T03:12:27;6.03;;;4.18;;
42104;SDS011;70664;51.472;5.712;2023-07-02T03:14:52;7.00;;;4.50;;
42104;SDS011;70664;51.472;5.712;2023-07-02T03:17:20;9.85;;;5.10;;
42104;SDS011;70664;51.472;5.712;2023-07-02T03:19:46;8.70;;;5.05;;
42104;SDS011;70664;51.472;5.712;2023-07-02T03:22:13;6.25;;;4.63;;
42104;SDS011;70664;51.472;5.712;2023-07-02T03:24:39;8.05;;;4.97;;
42104;SDS011;70664;51.472;5.712;2023-07-02T03:27:05;7.75;;;4.65;;
42104;SDS011;70664;51.472;5.712;2023-07-02T03:29:31;6.80;;;4.50;;
42104;SDS011;70664;51.472;5.712;2023-07-02T03:31:59;8.07;;;5.10;;
42104;SDS011;70664;51.472;5.712;2023-07-02T03:34:25;7.57;;;4.60;;
42104;SDS011;70664;51.472;5.712;2023-07-02T03:36:51;9.13;;;5.03;;
42104;SDS011;70664;51.472;5.712;2023-07-02T03:39:17;7.63;;;5.30;;
42104;SDS011;70664;51.472;5.712;2023-07-02T03:41:43;7.70;;;5.00;;
42104;SDS011;70664;51.472;5.712;2023-07-02T03:44:09;7.80;;;5.07;;
42104;SDS011;70664;51.472;5.712;2023-07-02T03:46:35;8.15;;;5.20;;
42104;SDS011;70664;51.472;5.712;2023-07-02T03:49:02;8.30;;;5.18;;
42104;SDS011;70664;51.472;5.712;2023-07-02T03:51:29;8.38;;;4.82;;
42104;SDS011;70664;51.472;5.712;2023-07-02T03:53:55;9.40;;;5.38;;
42104;SDS011;70664;51.472;5.712;2023-07-02T03:56:23;7.50;;;5.10;;
42104;SDS011;70664;51.472;5.712;2023-07-02T03:58:49;7.82;;;5.90;;
42104;SDS011;70664;51.472;5.712;2023-07-02T04:01:15;8.52;;;5.53;;
42104;SDS011;70664;51.472;5.712;2023-07-02T04:03:48;9.27;;;5.40;;
42104;SDS011;70664;51.472;5.712;2023-07-02T04:06:15;8.85;;;5.72;;
42104;SDS011;70664;51.472;5.712;2023-07-02T04:08:42;10.20;;;5.90;;
42104;SDS011;70664;51.472;5.712;2023-07-02T04:11:09;9.02;;;5.80;;
42104;SDS011;70664;51.472;5.712;2023-07-02T04:13:35;9.80;;;5.45;;
42104;SDS011;70664;51.472;5.712;2023-07-02T04:16:01;8.85;;;5.68;;
42104;SDS011;70664;51.472;5.712;2023-07-02T04:18:27;11.50;;;6.38;;
42104;SDS011;70664;51.472;5.712;2023-07-02T04:20:54;10.25;;;6.20;;
42104;SDS011;70664;51.472;5.712;2023-07-02T04:23:20;8.77;;;6.22;;
42104;SDS011;70664;51.472;5.712;2023-07-02T04:25:46;8.45;;;5.75;;
42104;SDS011;70664;51.472;5.712;2023-07-02T04:28:12;9.80;;;6.03;;
42104;SDS011;70664;51.472;5.712;2023-07-02T04:30:38;10.57;;;6.32;;
42104;SDS011;70664;51.472;5.712;2023-07-02T04:33:04;8.68;;;5.93;;
42104;SDS011;70664;51.472;5.712;2023-07-02T04:35:33;11.07;;;6.40;;
42104;SDS011;70664;51.472;5.712;2023-07-02T04:37:59;9.50;;;6.32;;
42104;SDS011;70664;51.472;5.712;2023-07-02T04:40:26;7.43;;;5.68;;
42104;SDS011;70664;51.472;5.712;2023-07-02T04:42:52;9.02;;;6.07;;
42104;SDS011;70664;51.472;5.712;2023-07-02T04:45:22;9.40;;;6.15;;
42104;SDS011;70664;51.472;5.712;2023-07-02T04:47:50;10.77;;;6.63;;
42104;SDS011;70664;51.472;5.712;2023-07-02T04:50:17;9.73;;;6.60;;
42104;SDS011;70664;51.472;5.712;2023-07-02T04:52:44;9.38;;;6.30;;
42104;SDS011;70664;51.472;5.712;2023-07-02T04:55:10;10.65;;;6.88;;
42104;SDS011;70664;51.472;5.712;2023-07-02T04:57:36;9.50;;;6.50;;
42104;SDS011;70664;51.472;5.712;2023-07-02T05:00:02;10.77;;;6.82;;
42104;SDS011;70664;51.472;5.712;2023-07-02T05:02:31;10.93;;;6.53;;
42104;SDS011;70664;51.472;5.712;2023-07-02T05:04:57;8.90;;;6.03;;
42104;SDS011;70664;51.472;5.712;2023-07-02T05:07:23;9.15;;;6.28;;
42104;SDS011;70664;51.472;5.712;2023-07-02T05:09:48;11.40;;;6.50;;
42104;SDS011;70664;51.472;5.712;2023-07-02T05:12:17;10.82;;;6.32;;
42104;SDS011;70664;51.472;5.712;2023-07-02T05:14:43;9.25;;;6.75;;
42104;SDS011;70664;51.472;5.712;2023-07-02T05:17:10;10.13;;;6.30;;
42104;SDS011;70664;51.472;5.712;2023-07-02T05:19:36;11.88;;;7.00;;
42104;SDS011;70664;51.472;5.712;2023-07-02T05:22:01;10.48;;;6.50;;
42104;SDS011;70664;51.472;5.712;2023-07-02T05:24:27;9.60;;;6.60;;
42104;SDS011;70664;51.472;5.712;2023-07-02T05:26:53;10.93;;;6.47;;
42104;SDS011;70664;51.472;5.712;2023-07-02T05:29:19;10.13;;;6.63;;
42104;SDS011;70664;51.472;5.712;2023-07-02T05:31:45;9.95;;;6.75;;
42104;SDS011;70664;51.472;5.712;2023-07-02T05:34:11;9.07;;;6.28;;
42104;SDS011;70664;51.472;5.712;2023-07-02T05:36:37;9.13;;;6.40;;
42104;SDS011;70664;51.472;5.712;2023-07-02T05:39:03;10.32;;;6.72;;
42104;SDS011;70664;51.472;5.712;2023-07-02T05:41:29;11.10;;;6.95;;
42104;SDS011;70664;51.472;5.712;2023-07-02T05:43:59;9.75;;;6.65;;
42104;SDS011;70664;51.472;5.712;2023-07-02T05:46:25;9.75;;;6.60;;
42104;SDS011;70664;51.472;5.712;2023-07-02T05:48:51;9.27;;;6.30;;
42104;SDS011;70664;51.472;5.712;2023-07-02T05:51:20;10.65;;;6.75;;
42104;SDS011;70664;51.472;5.712;2023-07-02T05:53:47;9.90;;;6.60;;
42104;SDS011;70664;51.472;5.712;2023-07-02T05:56:13;9.15;;;6.82;;
42104;SDS011;70664;51.472;5.712;2023-07-02T05:58:39;11.38;;;6.72;;
42104;SDS011;70664;51.472;5.712;2023-07-02T06:01:05;9.25;;;6.45;;
42104;SDS011;70664;51.472;5.712;2023-07-02T06:03:31;9.98;;;6.70;;
42104;SDS011;70664;51.472;5.712;2023-07-02T06:05:57;13.23;;;6.88;;
42104;SDS011;70664;51.472;5.712;2023-07-02T06:08:23;9.82;;;6.63;;
42104;SDS011;70664;51.472;5.712;2023-07-02T06:10:50;10.60;;;6.40;;
42104;SDS011;70664;51.472;5.712;2023-07-02T06:13:16;10.45;;;7.00;;
42104;SDS011;70664;51.472;5.712;2023-07-02T06:15:42;11.50;;;6.95;;
42104;SDS011;70664;51.472;5.712;2023-07-02T06:18:08;10.40;;;6.65;;
42104;SDS011;70664;51.472;5.712;2023-07-02T06:20:34;10.05;;;6.80;;
42104;SDS011;70664;51.472;5.712;2023-07-02T06:23:00;10.27;;;6.75;;
42104;SDS011;70664;51.472;5.712;2023-07-02T06:25:26;10.75;;;7.10;;
42104;SDS011;70664;51.472;5.712;2023-07-02T06:27:52;9.95;;;6.60;;
42104;SDS011;70664;51.472;5.712;2023-07-02T06:30:20;10.50;;;7.15;;
42104;SDS011;70664;51.472;5.712;2023-07-02T06:32:51;9.35;;;6.97;;
42104;SDS011;70664;51.472;5.712;2023-07-02T06:35:18;9.68;;;6.43;;
42104;SDS011;70664;51.472;5.712;2023-07-02T06:37:44;11.27;;;7.13;;
42104;SDS011;70664;51.472;5.712;2023-07-02T06:40:11;11.43;;;7.10;;
42104;SDS011;70664;51.472;5.712;2023-07-02T06:42:36;11.88;;;6.97;;
42104;SDS011;70664;51.472;5.712;2023-07-02T06:45:03;11.20;;;7.43;;
42104;SDS011;70664;51.472;5.712;2023-07-02T06:47:29;10.32;;;7.20;;
42104;SDS011;70664;51.472;5.712;2023-07-02T06:49:55;12.00;;;7.22;;
42104;SDS011;70664;51.472;5.712;2023-07-02T06:52:21;10.45;;;7.10;;
42104;SDS011;70664;51.472;5.712;2023-07-02T06:54:47;11.65;;;7.03;;
42104;SDS011;70664;51.472;5.712;2023-07-02T06:57:13;9.82;;;7.13;;
42104;SDS011;70664;51.472;5.712;2023-07-02T06:59:39;10.95;;;6.82;;
42104;SDS011;70664;51.472;5.712;2023-07-02T07:02:05;11.65;;;7.25;;
42104;SDS011;70664;51.472;5.712;2023-07-02T07:04:32;10.13;;;6.72;;
42104;SDS011;70664;51.472;5.712;2023-07-02T07:06:59;12.90;;;7.20;;
42104;SDS011;70664;51.472;5.712;2023-07-02T07:09:27;11.68;;;7.28;;
42104;SDS011;70664;51.472;5.712;2023-07-02T07:11:56;12.35;;;8.02;;
42104;SDS011;70664;51.472;5.712;2023-07-02T07:14:22;12.05;;;7.47;;
42104;SDS011;70664;51.472;5.712;2023-07-02T07:16:48;10.80;;;7.70;;
42104;SDS011;70664;51.472;5.712;2023-07-02T07:19:14;12.63;;;7.47;;
42104;SDS011;70664;51.472;5.712;2023-07-02T07:21:41;12.50;;;7.38;;
42104;SDS011;70664;51.472;5.712;2023-07-02T07:24:08;12.30;;;7.55;;
42104;SDS011;70664;51.472;5.712;2023-07-02T07:26:34;13.73;;;7.53;;
42104;SDS011;70664;51.472;5.712;2023-07-02T07:29:00;13.32;;;7.47;;
42104;SDS011;70664;51.472;5.712;2023-07-02T07:31:26;12.55;;;7.28;;
42104;SDS011;70664;51.472;5.712;2023-07-02T07:33:53;14.90;;;7.47;;
42104;SDS011;70664;51.472;5.712;2023-07-02T07:36:19;14.15;;;7.53;;
42104;SDS011;70664;51.472;5.712;2023-07-02T07:38:45;15.05;;;7.85;;
42104;SDS011;70664;51.472;5.712;2023-07-02T07:41:11;13.82;;;8.18;;
42104;SDS011;70664;51.472;5.712;2023-07-02T07:43:37;11.98;;;7.55;;
42104;SDS011;70664;51.472;5.712;2023-07-02T07:46:03;12.88;;;7.65;;
42104;SDS011;70664;51.472;5.712;2023-07-02T07:48:28;13.50;;;7.85;;
42104;SDS011;70664;51.472;5.712;2023-07-02T07:50:54;15.05;;;7.32;;
42104;SDS011;70664;51.472;5.712;2023-07-02T07:53:20;15.25;;;7.90;;
42104;SDS011;70664;51.472;5.712;2023-07-02T07:55:46;13.90;;;7.63;;
42104;SDS011;70664;51.472;5.712;2023-07-02T07:58:12;18.08;;;8.25;;
42104;SDS011;70664;51.472;5.712;2023-07-02T08:00:38;18.27;;;7.57;;
42104;SDS011;70664;51.472;5.712;2023-07-02T08:03:04;14.45;;;7.05;;
42104;SDS011;70664;51.472;5.712;2023-07-02T08:05:30;14.93;;;6.43;;
42104;SDS011;70664;51.472;5.712;2023-07-02T08:07:56;18.00;;;6.30;;
42104;SDS011;70664;51.472;5.712;2023-07-02T08:10:23;15.65;;;6.68;;
42104;SDS011;70664;51.472;5.712;2023-07-02T08:12:50;15.15;;;6.20;;
42104;SDS011;70664;51.472;5.712;2023-07-02T08:15:17;13.55;;;6.50;;
42104;SDS011;70664;51.472;5.712;2023-07-02T08:17:43;12.50;;;6.10;;
42104;SDS011;70664;51.472;5.712;2023-07-02T08:20:09;15.07;;;6.93;;
42104;SDS011;70664;51.472;5.712;2023-07-02T08:22:40;12.65;;;6.00;;
42104;SDS011;70664;51.472;5.712;2023-07-02T08:25:06;12.38;;;5.90;;
42104;SDS011;70664;51.472;5.712;2023-07-02T08:27:32;11.63;;;5.78;;
42104;SDS011;70664;51.472;5.712;2023-07-02T08:29:58;13.95;;;5.85;;
42104;SDS011;70664;51.472;5.712;2023-07-02T08:32:24;12.30;;;5.97;;
42104;SDS011;70664;51.472;5.712;2023-07-02T08:34:50;14.05;;;5.72;;
42104;SDS011;70664;51.472;5.712;2023-07-02T08:37:19;14.25;;;5.95;;
42104;SDS011;70664;51.472;5.712;2023-07-02T08:39:46;13.70;;;5.90;;
42104;SDS011;70664;51.472;5.712;2023-07-02T08:42:14;11.10;;;5.35;;
42104;SDS011;70664;51.472;5.712;2023-07-02T08:44:40;14.68;;;5.70;;
42104;SDS011;70664;51.472;5.712;2023-07-02T08:47:07;12.98;;;5.50;;
42104;SDS011;70664;51.472;5.712;2023-07-02T08:49:33;12.63;;;5.80;;
42104;SDS011;70664;51.472;5.712;2023-07-02T08:51:59;11.82;;;5.63;;
42104;SDS011;70664;51.472;5.712;2023-07-02T08:54:25;12.23;;;5.43;;
42104;SDS011;70664;51.472;5.712;2023-07-02T08:56:51;11.73;;;5.57;;
42104;SDS011;70664;51.472;5.712;2023-07-02T08:59:17;10.70;;;5.53;;
42104;SDS011;70664;51.472;5.712;2023-07-02T09:01:46;13.63;;;5.70;;
42104;SDS011;70664;51.472;5.712;2023-07-02T09:07:03;12.73;;;5.68;;
42104;SDS011;70664;51.472;5.712;2023-07-02T09:09:31;14.70;;;5.53;;
42104;SDS011;70664;51.472;5.712;2023-07-02T09:11:57;11.05;;;5.13;;
42104;SDS011;70664;51.472;5.712;2023-07-02T09:14:24;12.77;;;5.15;;
42104;SDS011;70664;51.472;5.712;2023-07-02T09:17:02;13.20;;;5.82;;
42104;SDS011;70664;51.472;5.712;2023-07-02T09:19:29;15.52;;;5.82;;
42104;SDS011;70664;51.472;5.712;2023-07-02T09:21:57;9.52;;;5.07;;
42104;SDS011;70664;51.472;5.712;2023-07-02T09:24:27;17.65;;;5.70;;
42104;SDS011;70664;51.472;5.712;2023-07-02T09:26:56;14.18;;;5.75;;
42104;SDS011;70664;51.472;5.712;2023-07-02T09:29:33;12.35;;;5.78;;
42104;SDS011;70664;51.472;5.712;2023-07-02T09:32:00;14.02;;;5.65;;
42104;SDS011;70664;51.472;5.712;2023-07-02T09:34:29;12.07;;;5.75;;
42104;SDS011;70664;51.472;5.712;2023-07-02T09:37:00;11.05;;;5.40;;
42104;SDS011;70664;51.472;5.712;2023-07-02T09:39:32;17.50;;;6.22;;
42104;SDS011;70664;51.472;5.712;2023-07-02T09:42:00;16.05;;;5.57;;
42104;SDS011;70664;51.472;5.712;2023-07-02T09:44:31;12.35;;;5.68;;
42104;SDS011;70664;51.472;5.712;2023-07-02T09:47:03;15.35;;;5.90;;
42104;SDS011;70664;51.472;5.712;2023-07-02T09:49:37;16.48;;;5.60;;
42104;SDS011;70664;51.472;5.712;2023-07-02T09:52:09;13.65;;;5.72;;
42104;SDS011;70664;51.472;5.712;2023-07-02T09:54:37;12.77;;;6.18;;
42104;SDS011;70664;51.472;5.712;2023-07-02T09:57:03;13.10;;;5.50;;
42104;SDS011;70664;51.472;5.712;2023-07-02T09:59:33;12.32;;;5.68;;
42104;SDS011;70664;51.472;5.712;2023-07-02T10:02:00;17.15;;;5.78;;
42104;SDS011;70664;51.472;5.712;2023-07-02T10:04:27;11.65;;;5.28;;
42104;SDS011;70664;51.472;5.712;2023-07-02T10:07:05;12.05;;;5.70;;
42104;SDS011;70664;51.472;5.712;2023-07-02T10:09:34;12.93;;;5.57;;
42104;SDS011;70664;51.472;5.712;2023-07-02T10:12:21;12.70;;;5.25;;
42104;SDS011;70664;51.472;5.712;2023-07-02T10:14:52;11.65;;;5.18;;
42104;SDS011;70664;51.472;5.712;2023-07-02T10:17:28;12.15;;;5.57;;
42104;SDS011;70664;51.472;5.712;2023-07-02T10:20:03;11.65;;;6.00;;
42104;SDS011;70664;51.472;5.712;2023-07-02T10:22:49;13.07;;;5.10;;
42104;SDS011;70664;51.472;5.712;2023-07-02T10:25:25;14.43;;;5.72;;
42104;SDS011;70664;51.472;5.712;2023-07-02T10:27:53;16.58;;;6.00;;
42104;SDS011;70664;51.472;5.712;2023-07-02T10:30:29;11.88;;;5.18;;
42104;SDS011;70664;51.472;5.712;2023-07-02T10:33:15;12.43;;;5.72;;
42104;SDS011;70664;51.472;5.712;2023-07-02T10:35:43;13.88;;;5.95;;
42104;SDS011;70664;51.472;5.712;2023-07-02T10:38:14;12.55;;;5.70;;
42104;SDS011;70664;51.472;5.712;2023-07-02T10:40:58;11.98;;;5.07;;
42104;SDS011;70664;51.472;5.712;2023-07-02T10:43:28;14.23;;;5.45;;
42104;SDS011;70664;51.472;5.712;2023-07-02T10:45:57;10.85;;;5.47;;
42104;SDS011;70664;51.472;5.712;2023-07-02T10:48:27;14.43;;;5.40;;
42104;SDS011;70664;51.472;5.712;2023-07-02T10:50:54;15.85;;;5.63;;
42104;SDS011;70664;51.472;5.712;2023-07-02T10:53:20;13.75;;;5.80;;
42104;SDS011;70664;51.472;5.712;2023-07-02T10:55:53;11.65;;;5.22;;
42104;SDS011;70664;51.472;5.712;2023-07-02T10:58:24;13.45;;;6.15;;
42104;SDS011;70664;51.472;5.712;2023-07-02T11:00:51;17.75;;;5.97;;
42104;SDS011;70664;51.472;5.712;2023-07-02T11:03:17;20.50;;;6.22;;
42104;SDS011;70664;51.472;5.712;2023-07-02T11:05:49;12.57;;;5.45;;
42104;SDS011;70664;51.472;5.712;2023-07-02T11:08:15;15.40;;;6.28;;
42104;SDS011;70664;51.472;5.712;2023-07-02T11:10:42;15.77;;;5.78;;
42104;SDS011;70664;51.472;5.712;2023-07-02T11:13:15;13.00;;;5.90;;
42104;SDS011;70664;51.472;5.712;2023-07-02T11:18:13;13.65;;;5.90;;
42104;SDS011;70664;51.472;5.712;2023-07-02T11:20:45;12.10;;;6.55;;
42104;SDS011;70664;51.472;5.712;2023-07-02T11:25:58;18.13;;;7.25;;
42104;SDS011;70664;51.472;5.712;2023-07-02T11:28:26;15.05;;;6.95;;
42104;SDS011;70664;51.472;5.712;2023-07-02T11:30:53;15.00;;;6.43;;
42104;SDS011;70664;51.472;5.712;2023-07-02T11:33:20;12.95;;;6.10;;
42104;SDS011;70664;51.472;5.712;2023-07-02T11:35:57;17.15;;;6.78;;
42104;SDS011;70664;51.472;5.712;2023-07-02T11:38:23;16.83;;;7.47;;
42104;SDS011;70664;51.472;5.712;2023-07-02T11:40:49;17.90;;;7.50;;
42104;SDS011;70664;51.472;5.712;2023-07-02T11:43:15;13.82;;;6.20;;
42104;SDS011;70664;51.472;5.712;2023-07-02T11:45:41;17.10;;;6.88;;
42104;SDS011;70664;51.472;5.712;2023-07-02T11:48:06;16.60;;;6.90;;
42104;SDS011;70664;51.472;5.712;2023-07-02T11:50:32;16.48;;;6.82;;
42104;SDS011;70664;51.472;5.712;2023-07-02T11:52:58;16.15;;;7.05;;
42104;SDS011;70664;51.472;5.712;2023-07-02T11:55:24;13.35;;;6.43;;
42104;SDS011;70664;51.472;5.712;2023-07-02T11:57:50;15.10;;;6.88;;
42104;SDS011;70664;51.472;5.712;2023-07-02T12:00:16;14.60;;;6.95;;
42104;SDS011;70664;51.472;5.712;2023-07-02T12:02:42;14.13;;;6.80;;
42104;SDS011;70664;51.472;5.712;2023-07-02T12:05:08;16.00;;;7.03;;
42104;SDS011;70664;51.472;5.712;2023-07-02T12:07:34;22.55;;;7.43;;
42104;SDS011;70664;51.472;5.712;2023-07-02T12:10:00;16.15;;;7.22;;
42104;SDS011;70664;51.472;5.712;2023-07-02T12:12:26;17.17;;;7.30;;
42104;SDS011;70664;51.472;5.712;2023-07-02T12:14:51;16.30;;;6.63;;
42104;SDS011;70664;51.472;5.712;2023-07-02T12:17:17;19.65;;;7.30;;
42104;SDS011;70664;51.472;5.712;2023-07-02T12:19:43;19.13;;;8.15;;
42104;SDS011;70664;51.472;5.712;2023-07-02T12:22:09;16.20;;;6.90;;
42104;SDS011;70664;51.472;5.712;2023-07-02T12:24:35;17.60;;;7.20;;
42104;SDS011;70664;51.472;5.712;2023-07-02T12:27:01;18.10;;;6.97;;
42104;SDS011;70664;51.472;5.712;2023-07-02T12:29:27;15.52;;;6.97;;
42104;SDS011;70664;51.472;5.712;2023-07-02T12:31:53;18.05;;;7.47;;
42104;SDS011;70664;51.472;5.712;2023-07-02T12:34:19;14.15;;;6.53;;
42104;SDS011;70664;51.472;5.712;2023-07-02T12:36:45;18.38;;;7.18;;
42104;SDS011;70664;51.472;5.712;2023-07-02T12:39:11;12.75;;;6.20;;
42104;SDS011;70664;51.472;5.712;2023-07-02T12:41:36;14.45;;;6.65;;
42104;SDS011;70664;51.472;5.712;2023-07-02T12:44:02;14.60;;;6.95;;
42104;SDS011;70664;51.472;5.712;2023-07-02T12:46:28;15.02;;;6.78;;
42104;SDS011;70664;51.472;5.712;2023-07-02T12:48:54;14.98;;;7.25;;
42104;SDS011;70664;51.472;5.712;2023-07-02T12:51:19;17.17;;;6.75;;
42104;SDS011;70664;51.472;5.712;2023-07-02T12:53:45;16.20;;;6.63;;
42104;SDS011;70664;51.472;5.712;2023-07-02T12:56:11;14.13;;;6.20;;
42104;SDS011;70664;51.472;5.712;2023-07-02T12:58:37;17.73;;;6.88;;
42104;SDS011;70664;51.472;5.712;2023-07-02T13:01:03;15.02;;;6.30;;
42104;SDS011;70664;51.472;5.712;2023-07-02T13:03:32;12.70;;;6.60;;
42104;SDS011;70664;51.472;5.712;2023-07-02T13:05:58;14.63;;;6.63;;
42104;SDS011;70664;51.472;5.712;2023-07-02T13:08:26;15.65;;;5.95;;
42104;SDS011;70664;51.472;5.712;2023-07-02T13:10:52;16.73;;;6.03;;
42104;SDS011;70664;51.472;5.712;2023-07-02T13:13:17;11.95;;;5.53;;
42104;SDS011;70664;51.472;5.712;2023-07-02T13:15:43;16.13;;;6.13;;
42104;SDS011;70664;51.472;5.712;2023-07-02T13:18:09;11.73;;;5.45;;
42104;SDS011;70664;51.472;5.712;2023-07-02T13:20:35;13.90;;;5.38;;
42104;SDS011;70664;51.472;5.712;2023-07-02T13:23:02;11.95;;;5.10;;
42104;SDS011;70664;51.472;5.712;2023-07-02T13:25:29;12.73;;;5.43;;
42104;SDS011;70664;51.472;5.712;2023-07-02T13:27:54;14.40;;;5.47;;
42104;SDS011;70664;51.472;5.712;2023-07-02T13:30:20;12.20;;;5.35;;
42104;SDS011;70664;51.472;5.712;2023-07-02T13:32:46;13.43;;;5.63;;
42104;SDS011;70664;51.472;5.712;2023-07-02T13:35:12;13.68;;;5.60;;
42104;SDS011;70664;51.472;5.712;2023-07-02T13:37:38;12.63;;;5.22;;
42104;SDS011;70664;51.472;5.712;2023-07-02T13:40:04;11.50;;;5.28;;
42104;SDS011;70664;51.472;5.712;2023-07-02T13:42:33;11.98;;;5.55;;
42104;SDS011;70664;51.472;5.712;2023-07-02T13:45:00;15.10;;;5.45;;
42104;SDS011;70664;51.472;5.712;2023-07-02T13:47:26;10.05;;;5.40;;
42104;SDS011;70664;51.472;5.712;2023-07-02T13:49:56;11.23;;;5.05;;
42104;SDS011;70664;51.472;5.712;2023-07-02T13:52:22;10.75;;;5.05;;
42104;SDS011;70664;51.472;5.712;2023-07-02T13:54:48;13.30;;;5.55;;
42104;SDS011;70664;51.472;5.712;2023-07-02T13:57:14;11.40;;;5.45;;
42104;SDS011;70664;51.472;5.712;2023-07-02T13:59:40;17.70;;;5.32;;
42104;SDS011;70664;51.472;5.712;2023-07-02T14:02:06;14.40;;;5.70;;
42104;SDS011;70664;51.472;5.712;2023-07-02T14:04:32;11.85;;;5.28;;
42104;SDS011;70664;51.472;5.712;2023-07-02T14:06:58;10.40;;;5.38;;
42104;SDS011;70664;51.472;5.712;2023-07-02T14:09:24;12.70;;;6.20;;
42104;SDS011;70664;51.472;5.712;2023-07-02T14:11:52;11.95;;;5.05;;
42104;SDS011;70664;51.472;5.712;2023-07-02T14:14:18;12.05;;;5.43;;
42104;SDS011;70664;51.472;5.712;2023-07-02T14:16:44;12.30;;;5.57;;
42104;SDS011;70664;51.472;5.712;2023-07-02T14:19:10;9.18;;;5.20;;
42104;SDS011;70664;51.472;5.712;2023-07-02T14:21:37;10.60;;;5.60;;
42104;SDS011;70664;51.472;5.712;2023-07-02T14:24:03;11.63;;;5.00;;
42104;SDS011;70664;51.472;5.712;2023-07-02T14:26:30;14.00;;;5.22;;
42104;SDS011;70664;51.472;5.712;2023-07-02T14:28:57;15.57;;;5.38;;
42104;SDS011;70664;51.472;5.712;2023-07-02T14:31:25;15.27;;;5.60;;
42104;SDS011;70664;51.472;5.712;2023-07-02T14:33:51;13.18;;;4.97;;
42104;SDS011;70664;51.472;5.712;2023-07-02T14:36:17;10.18;;;5.00;;
42104;SDS011;70664;51.472;5.712;2023-07-02T14:38:43;12.10;;;5.13;;
42104;SDS011;70664;51.472;5.712;2023-07-02T14:41:09;11.75;;;5.15;;
42104;SDS011;70664;51.472;5.712;2023-07-02T14:43:36;12.30;;;5.30;;
42104;SDS011;70664;51.472;5.712;2023-07-02T14:46:05;14.23;;;5.15;;
42104;SDS011;70664;51.472;5.712;2023-07-02T14:48:31;12.77;;;4.93;;
42104;SDS011;70664;51.472;5.712;2023-07-02T14:50:58;10.48;;;4.70;;